7°C Temp
5°C Dewpoint
% Humidity
Temperature
10 KM/H
6 MPH
5 KTS
280°
Due West

Wind Speed
Despejado
Pressure 1020.92 (hPa) - 30.15 (in)
Visibility 6.2 (mi) - 10.0 (km)

Current Conditions
LEVC
Location 70(km)
Metar :LEVC 110100Z 28005KT CAVOK 07/05 Q1021 NOSIG
Wed 11th December 02:00 am

Airport
  Metar Aviation API Data Provided by https://www.checkwx.com/ PHP scripts by weather34.com ©2019